createdAt,value
2023-03-29T00:03:49.374Z,45.40
2023-03-29T00:09:50.903Z,45.76
2023-03-29T00:15:55.886Z,45.99
2023-03-29T00:21:57.604Z,46.42
2023-03-29T00:27:59.126Z,46.32
2023-03-29T00:34:00.737Z,47.04
2023-03-29T00:40:10.061Z,47.27
2023-03-29T00:46:11.570Z,46.89
2023-03-29T00:52:15.400Z,46.85
2023-03-29T00:58:21.122Z,46.66
2023-03-29T01:04:53.307Z,47.06
2023-03-29T01:11:19.861Z,47.21
2023-03-29T01:17:24.668Z,47.69
2023-03-29T01:23:53.967Z,47.82
2023-03-29T01:30:00.543Z,47.34
2023-03-29T01:36:12.403Z,47.59
2023-03-29T01:42:26.290Z,47.87
2023-03-29T01:48:36.262Z,47.31
2023-03-29T01:54:45.572Z,47.49
2023-03-29T02:00:48.534Z,47.51
2023-03-29T02:06:53.671Z,48.08
2023-03-29T02:13:00.746Z,48.49
2023-03-29T02:19:08.492Z,48.56
2023-03-29T02:25:10.297Z,48.64
2023-03-29T02:31:38.469Z,48.89
2023-03-29T02:37:43.703Z,49.22
2023-03-29T02:43:49.756Z,49.09
2023-03-29T02:49:51.300Z,49.80
2023-03-29T02:55:53.215Z,50.05
2023-03-29T03:01:55.025Z,50.24
2023-03-29T03:07:57.719Z,50.53
2023-03-29T03:13:59.438Z,50.44
2023-03-29T03:20:00.937Z,50.64
2023-03-29T03:26:02.739Z,51.16
2023-03-29T03:32:05.334Z,51.49
2023-03-29T03:38:25.664Z,51.15
2023-03-29T03:44:34.637Z,51.23
2023-03-29T03:51:20.841Z,51.25
2023-03-29T03:57:31.213Z,51.34
2023-03-29T04:03:33.358Z,51.33
2023-03-29T04:09:38.255Z,51.72
2023-03-29T04:16:01.697Z,52.07
2023-03-29T04:22:12.676Z,52.57
2023-03-29T04:28:17.052Z,52.46
2023-03-29T04:34:32.496Z,52.90
2023-03-29T04:40:34.565Z,52.69
2023-03-29T04:47:12.201Z,52.77
2023-03-29T04:53:27.630Z,52.93
2023-03-29T04:59:29.323Z,52.60
2023-03-29T05:05:33.464Z,52.30
2023-03-29T05:11:36.524Z,51.59
2023-03-29T05:17:38.739Z,50.67
2023-03-29T05:23:44.228Z,50.14
2023-03-29T05:29:51.655Z,49.70
2023-03-29T05:36:07.817Z,49.00
2023-03-29T05:42:14.832Z,47.97
2023-03-29T05:48:24.162Z,48.53
2023-03-29T05:54:26.483Z,47.75
2023-03-29T06:00:29.232Z,47.36
2023-03-29T06:06:38.583Z,47.15
2023-03-29T06:12:41.331Z,47.05
2023-03-29T06:18:44.198Z,46.92
2023-03-29T06:24:46.504Z,46.76
2023-03-29T06:31:01.852Z,46.09
2023-03-29T06:37:07.779Z,45.46
2023-03-29T06:43:10.364Z,45.75
2023-03-29T06:49:29.249Z,46.46
2023-03-29T06:55:54.103Z,45.59
2023-03-29T07:02:11.689Z,45.95
2023-03-29T07:08:22.472Z,45.96
2023-03-29T07:14:33.648Z,45.14
2023-03-29T07:20:37.741Z,45.07
2023-03-29T07:26:52.385Z,44.74
2023-03-29T07:33:03.658Z,44.22
2023-03-29T07:39:15.022Z,43.94
2023-03-29T07:45:26.084Z,44.01
2023-03-29T07:51:42.958Z,43.44
2023-03-29T07:57:46.594Z,43.41
2023-03-29T08:03:48.872Z,42.84
2023-03-29T08:09:51.284Z,42.59
2023-03-29T08:15:55.378Z,42.02
2023-03-29T08:22:02.275Z,41.81
2023-03-29T08:28:12.662Z,40.34
2023-03-29T08:34:20.853Z,39.43
2023-03-29T08:40:38.095Z,36.59
2023-03-29T08:47:36.210Z,36.51
2023-03-29T08:53:41.738Z,37.16
2023-03-29T08:59:51.035Z,37.09
2023-03-29T09:05:57.541Z,37.40
2023-03-29T09:12:16.038Z,37.92
2023-03-29T09:18:48.632Z,36.98
2023-03-29T09:25:20.768Z,36.70
2023-03-29T09:31:27.868Z,36.70
2023-03-29T09:37:33.903Z,37.12
2023-03-29T09:43:41.109Z,37.03
2023-03-29T09:49:48.299Z,36.96
2023-03-29T09:55:51.312Z,36.89
2023-03-29T10:02:13.025Z,35.77
2023-03-29T10:08:41.811Z,36.79
2023-03-29T10:14:53.922Z,35.96
2023-03-29T10:20:59.297Z,37.30
2023-03-29T10:27:03.140Z,36.92
2023-03-29T10:33:06.272Z,36.82
2023-03-29T10:39:10.079Z,36.57
2023-03-29T10:45:22.212Z,36.46
2023-03-29T10:51:27.057Z,35.40
2023-03-29T10:57:37.996Z,34.34
2023-03-29T11:03:58.150Z,33.66
2023-03-29T11:10:14.045Z,32.93
2023-03-29T11:16:15.941Z,35.35
2023-03-29T11:22:20.664Z,36.48
2023-03-29T11:28:42.363Z,35.56
2023-03-29T11:35:10.193Z,34.58
2023-03-29T11:41:17.053Z,35.34
2023-03-29T11:47:20.714Z,34.48
2023-03-29T11:53:27.780Z,34.50
2023-03-29T11:59:36.710Z,34.64
2023-03-29T12:05:45.276Z,33.25
2023-03-29T12:12:02.428Z,33.29
2023-03-29T12:18:07.097Z,33.34
2023-03-29T12:24:20.436Z,33.76
2023-03-29T12:30:40.966Z,33.68
2023-03-29T12:37:21.224Z,33.88
2023-03-29T12:43:42.747Z,34.00
2023-03-29T12:50:04.031Z,33.77
2023-03-29T12:56:07.841Z,33.22
2023-03-29T13:02:13.181Z,33.29
2023-03-29T13:08:25.705Z,34.14
2023-03-29T13:14:29.536Z,33.37
2023-03-29T13:21:20.466Z,32.35
2023-03-29T13:27:39.085Z,33.05
2023-03-29T13:33:55.459Z,32.54
2023-03-29T13:39:57.216Z,33.07
2023-03-29T13:45:59.304Z,33.75
2023-03-29T13:52:18.817Z,33.75
2023-03-29T13:58:39.090Z,33.58
2023-03-29T14:04:46.316Z,33.33
2023-03-29T14:10:48.221Z,34.27
2023-03-29T14:16:50.191Z,33.63
2023-03-29T14:22:52.460Z,34.32
2023-03-29T14:29:00.335Z,33.91
2023-03-29T14:35:02.112Z,34.09
2023-03-29T14:41:06.852Z,34.54
2023-03-29T14:47:15.653Z,34.34
2023-03-29T14:53:22.373Z,33.23
2023-03-29T14:59:38.291Z,34.18
2023-03-29T15:05:56.842Z,33.86
2023-03-29T15:12:04.682Z,33.88
2023-03-29T15:18:09.362Z,34.17
2023-03-29T15:24:30.785Z,34.38
2023-03-29T15:30:37.957Z,34.08
2023-03-29T15:36:49.600Z,34.06
2023-03-29T15:43:01.293Z,34.01
2023-03-29T15:49:04.279Z,34.37
2023-03-29T15:55:12.104Z,34.35
2023-03-29T16:01:38.086Z,32.68
2023-03-29T16:07:39.800Z,33.08
2023-03-29T16:13:44.726Z,33.27
2023-03-29T16:19:49.448Z,33.72
2023-03-29T16:25:50.900Z,34.85
2023-03-29T16:31:53.214Z,35.12
2023-03-29T16:37:55.904Z,35.64
2023-03-29T16:43:58.420Z,36.06
2023-03-29T16:50:00.021Z,36.59
2023-03-29T16:56:03.061Z,37.07
2023-03-29T17:02:05.172Z,37.75
2023-03-29T17:08:09.203Z,38.20
2023-03-29T17:14:12.049Z,38.70
2023-03-29T17:20:13.446Z,38.52
2023-03-29T17:26:17.533Z,23.63
2023-03-29T17:32:19.047Z,39.35
2023-03-29T17:38:21.108Z,-1.00
2023-03-29T17:44:22.823Z,-1.00
2023-03-29T17:50:25.697Z,30.65
2023-03-29T17:56:27.720Z,-1.00
2023-03-29T18:02:29.458Z,-1.00
2023-03-29T18:08:32.086Z,-1.00
2023-03-29T18:14:34.882Z,19.20
2023-03-29T18:20:36.522Z,48.34
2023-03-29T18:26:38.420Z,-1.00
2023-03-29T18:32:40.117Z,-1.00
2023-03-29T18:38:43.258Z,-1.00
2023-03-29T18:44:48.505Z,-1.00
2023-03-29T18:51:16.549Z,-1.00
2023-03-29T18:57:25.868Z,-1.00
2023-03-29T19:03:28.017Z,-1.00
2023-03-29T19:09:30.999Z,-1.00
2023-03-29T19:15:46.803Z,-1.00
2023-03-29T19:21:48.925Z,89.32
2023-03-29T19:27:50.995Z,58.72
2023-03-29T19:33:52.910Z,-1.00
2023-03-29T19:39:58.441Z,19.20
2023-03-29T19:46:06.431Z,28.43
2023-03-29T19:52:08.047Z,-1.00
2023-03-29T19:58:09.601Z,-1.00
2023-03-29T20:04:11.387Z,-1.00
2023-03-29T20:10:16.558Z,-1.00
2023-03-29T20:16:23.698Z,19.20
2023-03-29T20:22:30.059Z,58.13
2023-03-29T20:28:37.215Z,48.20
2023-03-29T20:34:41.246Z,48.89
2023-03-29T20:40:44.403Z,48.92
2023-03-29T20:47:18.142Z,59.69
2023-03-29T21:00:37.807Z,60.18
2023-03-29T21:07:04.865Z,59.60
2023-03-29T21:13:06.973Z,48.29
2023-03-29T21:19:09.535Z,49.12
2023-03-29T21:25:15.330Z,48.89
2023-03-29T21:31:17.464Z,49.46
2023-03-29T21:37:21.473Z,48.99
2023-03-29T21:43:25.426Z,48.44
2023-03-29T21:49:29.145Z,48.50
2023-03-29T21:55:33.398Z,48.70
2023-03-29T22:01:35.124Z,48.84
2023-03-29T22:07:40.190Z,48.93
2023-03-29T22:13:45.557Z,48.69
2023-03-29T22:19:49.723Z,48.83
2023-03-29T22:25:51.245Z,49.53
2023-03-29T22:31:53.136Z,49.91
2023-03-29T22:37:55.109Z,50.09
2023-03-29T22:43:58.064Z,50.21
2023-03-29T22:49:59.881Z,50.33
2023-03-29T22:56:06.873Z,50.50
2023-03-29T23:02:08.504Z,50.28
2023-03-29T23:08:10.346Z,50.52
2023-03-29T23:14:11.825Z,50.57
2023-03-29T23:20:13.391Z,50.46
2023-03-29T23:26:15.256Z,50.20
2023-03-29T23:32:16.718Z,49.76
2023-03-29T23:38:18.483Z,50.15
2023-03-29T23:44:20.144Z,50.02
2023-03-29T23:50:21.963Z,49.07
2023-03-29T23:56:23.566Z,48.87
